Terminal Aerodrome Forecast
Issued by NWS Jacksonville, FL

Home | Current Version | Previous Version | Text Only | Print | Product List | Glossary On
Versions: 1 2 3 4 5 6 7 8 9 10 11 12 13 14 15 16
936
FTUS42 KJAX 272320
TAFSSI
TAF
KSSI 272320Z 2800/2824 06008KT P6SM VCSH FEW025 BKN035
     FM280600 06008KT P6SM VCSH SCT040
     FM281400 06012G18KT P6SM VCSH SCT025 BKN040
     FM282100 06012G18KT P6SM BKN050=

USA.gov is the U.S. government's official web portal to all federal, state and local government web resources and services.